sensor_id;sensor_type;location;lat;lon;timestamp;P1;durP1;ratioP1;P2;durP2;ratioP2
46651;SDS011;32377;52.182;5.398;2023-04-16T00:02:16;18.75;;;4.65;;
46651;SDS011;32377;52.182;5.398;2023-04-16T00:04:42;17.77;;;4.72;;
46651;SDS011;32377;52.182;5.398;2023-04-16T00:07:08;20.75;;;4.50;;
46651;SDS011;32377;52.182;5.398;2023-04-16T00:09:33;18.60;;;4.80;;
46651;SDS011;32377;52.182;5.398;2023-04-16T00:11:59;19.00;;;4.63;;
46651;SDS011;32377;52.182;5.398;2023-04-16T00:14:25;25.45;;;5.82;;
46651;SDS011;32377;52.182;5.398;2023-04-16T00:16:50;23.05;;;6.43;;
46651;SDS011;32377;52.182;5.398;2023-04-16T00:19:16;22.13;;;6.35;;
46651;SDS011;32377;52.182;5.398;2023-04-16T00:21:41;21.20;;;6.45;;
46651;SDS011;32377;52.182;5.398;2023-04-16T00:24:07;17.77;;;5.30;;
46651;SDS011;32377;52.182;5.398;2023-04-16T00:26:33;15.95;;;5.18;;
46651;SDS011;32377;52.182;5.398;2023-04-16T00:28:58;18.98;;;6.25;;
46651;SDS011;32377;52.182;5.398;2023-04-16T00:31:28;20.92;;;5.53;;
46651;SDS011;32377;52.182;5.398;2023-04-16T00:33:55;17.15;;;5.60;;
46651;SDS011;32377;52.182;5.398;2023-04-16T00:36:24;25.05;;;5.35;;
46651;SDS011;32377;52.182;5.398;2023-04-16T00:38:51;24.67;;;7.00;;
46651;SDS011;32377;52.182;5.398;2023-04-16T00:41:17;20.08;;;7.63;;
46651;SDS011;32377;52.182;5.398;2023-04-16T00:43:43;28.00;;;7.55;;
46651;SDS011;32377;52.182;5.398;2023-04-16T00:46:08;24.92;;;6.90;;
46651;SDS011;32377;52.182;5.398;2023-04-16T00:48:37;18.25;;;6.65;;
46651;SDS011;32377;52.182;5.398;2023-04-16T00:51:05;25.50;;;7.53;;
46651;SDS011;32377;52.182;5.398;2023-04-16T00:53:32;23.13;;;7.10;;
46651;SDS011;32377;52.182;5.398;2023-04-16T00:55:58;24.00;;;6.32;;
46651;SDS011;32377;52.182;5.398;2023-04-16T00:58:28;25.00;;;7.90;;
46651;SDS011;32377;52.182;5.398;2023-04-16T01:00:54;22.45;;;7.85;;
46651;SDS011;32377;52.182;5.398;2023-04-16T01:03:21;25.23;;;7.85;;
46651;SDS011;32377;52.182;5.398;2023-04-16T01:05:47;20.98;;;7.88;;
46651;SDS011;32377;52.182;5.398;2023-04-16T01:08:16;23.60;;;7.45;;
46651;SDS011;32377;52.182;5.398;2023-04-16T01:10:42;25.33;;;8.90;;
46651;SDS011;32377;52.182;5.398;2023-04-16T01:13:09;24.85;;;9.32;;
46651;SDS011;32377;52.182;5.398;2023-04-16T01:15:35;33.13;;;9.35;;
46651;SDS011;32377;52.182;5.398;2023-04-16T01:18:01;33.53;;;8.77;;
46651;SDS011;32377;52.182;5.398;2023-04-16T01:20:26;30.55;;;8.70;;
46651;SDS011;32377;52.182;5.398;2023-04-16T01:22:52;27.92;;;9.85;;
46651;SDS011;32377;52.182;5.398;2023-04-16T01:25:17;21.13;;;8.45;;
46651;SDS011;32377;52.182;5.398;2023-04-16T01:27:43;29.08;;;9.23;;
46651;SDS011;32377;52.182;5.398;2023-04-16T01:30:09;24.88;;;10.10;;
46651;SDS011;32377;52.182;5.398;2023-04-16T01:32:34;28.52;;;9.30;;
46651;SDS011;32377;52.182;5.398;2023-04-16T01:35:00;29.52;;;10.10;;
46651;SDS011;32377;52.182;5.398;2023-04-16T01:37:25;24.52;;;9.52;;
46651;SDS011;32377;52.182;5.398;2023-04-16T01:39:51;26.60;;;9.30;;
46651;SDS011;32377;52.182;5.398;2023-04-16T01:42:17;32.67;;;9.25;;
46651;SDS011;32377;52.182;5.398;2023-04-16T01:44:42;28.63;;;8.70;;
46651;SDS011;32377;52.182;5.398;2023-04-16T01:47:08;25.48;;;10.20;;
46651;SDS011;32377;52.182;5.398;2023-04-16T01:49:33;35.25;;;10.25;;
46651;SDS011;32377;52.182;5.398;2023-04-16T01:52:00;24.17;;;10.90;;
46651;SDS011;32377;52.182;5.398;2023-04-16T01:54:25;32.58;;;11.60;;
46651;SDS011;32377;52.182;5.398;2023-04-16T01:56:51;39.92;;;12.00;;
46651;SDS011;32377;52.182;5.398;2023-04-16T01:59:17;38.33;;;12.90;;
46651;SDS011;32377;52.182;5.398;2023-04-16T02:01:42;33.72;;;12.38;;
46651;SDS011;32377;52.182;5.398;2023-04-16T02:04:08;35.58;;;12.48;;
46651;SDS011;32377;52.182;5.398;2023-04-16T02:06:35;28.38;;;12.05;;
46651;SDS011;32377;52.182;5.398;2023-04-16T02:09:01;30.45;;;13.35;;
46651;SDS011;32377;52.182;5.398;2023-04-16T02:11:26;34.70;;;13.02;;
46651;SDS011;32377;52.182;5.398;2023-04-16T02:13:52;36.08;;;14.15;;
46651;SDS011;32377;52.182;5.398;2023-04-16T02:16:18;39.72;;;12.88;;
46651;SDS011;32377;52.182;5.398;2023-04-16T02:18:43;31.67;;;14.50;;
46651;SDS011;32377;52.182;5.398;2023-04-16T02:21:09;32.78;;;13.65;;
46651;SDS011;32377;52.182;5.398;2023-04-16T02:23:34;43.72;;;14.02;;
46651;SDS011;32377;52.182;5.398;2023-04-16T02:26:01;52.22;;;14.27;;
46651;SDS011;32377;52.182;5.398;2023-04-16T02:28:27;39.28;;;14.27;;
46651;SDS011;32377;52.182;5.398;2023-04-16T02:30:53;40.45;;;15.15;;
46651;SDS011;32377;52.182;5.398;2023-04-16T02:33:18;42.47;;;15.07;;
46651;SDS011;32377;52.182;5.398;2023-04-16T02:35:44;34.08;;;13.40;;
46651;SDS011;32377;52.182;5.398;2023-04-16T02:38:10;40.08;;;14.15;;
46651;SDS011;32377;52.182;5.398;2023-04-16T02:40:35;35.70;;;14.77;;
46651;SDS011;32377;52.182;5.398;2023-04-16T02:43:01;38.92;;;14.38;;
46651;SDS011;32377;52.182;5.398;2023-04-16T02:45:27;38.83;;;15.65;;
46651;SDS011;32377;52.182;5.398;2023-04-16T02:47:52;36.80;;;14.43;;
46651;SDS011;32377;52.182;5.398;2023-04-16T02:50:18;37.45;;;16.45;;
46651;SDS011;32377;52.182;5.398;2023-04-16T02:52:43;37.53;;;14.82;;
46651;SDS011;32377;52.182;5.398;2023-04-16T02:55:09;38.15;;;14.90;;
46651;SDS011;32377;52.182;5.398;2023-04-16T02:57:35;35.10;;;14.55;;
46651;SDS011;32377;52.182;5.398;2023-04-16T03:00:01;34.88;;;15.52;;
46651;SDS011;32377;52.182;5.398;2023-04-16T03:02:28;33.25;;;14.68;;
46651;SDS011;32377;52.182;5.398;2023-04-16T03:04:54;39.55;;;16.63;;
46651;SDS011;32377;52.182;5.398;2023-04-16T03:07:20;40.92;;;18.23;;
46651;SDS011;32377;52.182;5.398;2023-04-16T03:09:46;42.13;;;17.63;;
46651;SDS011;32377;52.182;5.398;2023-04-16T03:12:11;40.95;;;18.05;;
46651;SDS011;32377;52.182;5.398;2023-04-16T03:14:37;36.75;;;16.75;;
46651;SDS011;32377;52.182;5.398;2023-04-16T03:17:03;43.92;;;17.40;;
46651;SDS011;32377;52.182;5.398;2023-04-16T03:19:28;44.15;;;17.30;;
46651;SDS011;32377;52.182;5.398;2023-04-16T03:21:54;42.33;;;15.43;;
46651;SDS011;32377;52.182;5.398;2023-04-16T03:24:20;41.10;;;15.00;;
46651;SDS011;32377;52.182;5.398;2023-04-16T03:26:45;36.45;;;15.80;;
46651;SDS011;32377;52.182;5.398;2023-04-16T03:29:11;42.53;;;15.50;;
46651;SDS011;32377;52.182;5.398;2023-04-16T03:31:36;42.92;;;15.68;;
46651;SDS011;32377;52.182;5.398;2023-04-16T03:34:02;38.33;;;14.88;;
46651;SDS011;32377;52.182;5.398;2023-04-16T03:36:28;39.58;;;15.35;;
46651;SDS011;32377;52.182;5.398;2023-04-16T03:38:53;37.33;;;14.43;;
46651;SDS011;32377;52.182;5.398;2023-04-16T03:41:19;40.22;;;15.50;;
46651;SDS011;32377;52.182;5.398;2023-04-16T03:43:44;37.40;;;14.68;;
46651;SDS011;32377;52.182;5.398;2023-04-16T03:46:10;35.95;;;15.38;;
46651;SDS011;32377;52.182;5.398;2023-04-16T03:48:36;40.58;;;15.38;;
46651;SDS011;32377;52.182;5.398;2023-04-16T03:51:01;30.60;;;14.77;;
46651;SDS011;32377;52.182;5.398;2023-04-16T03:53:27;31.05;;;15.82;;
46651;SDS011;32377;52.182;5.398;2023-04-16T03:59:16;41.25;;;14.60;;
46651;SDS011;32377;52.182;5.398;2023-04-16T04:01:42;37.33;;;15.27;;
46651;SDS011;32377;52.182;5.398;2023-04-16T04:04:08;35.67;;;15.68;;
46651;SDS011;32377;52.182;5.398;2023-04-16T04:06:34;35.45;;;15.90;;
46651;SDS011;32377;52.182;5.398;2023-04-16T04:09:00;40.67;;;15.90;;
46651;SDS011;32377;52.182;5.398;2023-04-16T04:11:25;45.83;;;16.00;;
46651;SDS011;32377;52.182;5.398;2023-04-16T04:13:51;38.55;;;13.52;;
46651;SDS011;32377;52.182;5.398;2023-04-16T04:16:16;35.17;;;15.40;;
46651;SDS011;32377;52.182;5.398;2023-04-16T04:18:42;37.78;;;15.45;;
46651;SDS011;32377;52.182;5.398;2023-04-16T04:21:08;35.55;;;15.57;;
46651;SDS011;32377;52.182;5.398;2023-04-16T04:23:34;36.80;;;15.80;;
46651;SDS011;32377;52.182;5.398;2023-04-16T04:26:00;43.35;;;16.70;;
46651;SDS011;32377;52.182;5.398;2023-04-16T04:28:32;36.40;;;15.23;;
46651;SDS011;32377;52.182;5.398;2023-04-16T04:30:58;44.65;;;17.80;;
46651;SDS011;32377;52.182;5.398;2023-04-16T04:33:24;49.83;;;16.08;;
46651;SDS011;32377;52.182;5.398;2023-04-16T04:35:50;43.78;;;14.73;;
46651;SDS011;32377;52.182;5.398;2023-04-16T04:38:16;39.90;;;15.90;;
46651;SDS011;32377;52.182;5.398;2023-04-16T04:40:49;37.78;;;17.15;;
46651;SDS011;32377;52.182;5.398;2023-04-16T04:43:16;48.75;;;16.35;;
46651;SDS011;32377;52.182;5.398;2023-04-16T04:45:42;38.65;;;15.65;;
46651;SDS011;32377;52.182;5.398;2023-04-16T04:48:08;33.97;;;16.08;;
46651;SDS011;32377;52.182;5.398;2023-04-16T04:50:33;42.30;;;16.15;;
46651;SDS011;32377;52.182;5.398;2023-04-16T04:53:00;45.90;;;16.60;;
46651;SDS011;32377;52.182;5.398;2023-04-16T04:55:25;45.50;;;15.68;;
46651;SDS011;32377;52.182;5.398;2023-04-16T04:57:51;53.65;;;17.30;;
46651;SDS011;32377;52.182;5.398;2023-04-16T05:00:16;42.72;;;16.63;;
46651;SDS011;32377;52.182;5.398;2023-04-16T05:02:42;46.22;;;17.90;;
46651;SDS011;32377;52.182;5.398;2023-04-16T05:05:08;46.90;;;15.63;;
46651;SDS011;32377;52.182;5.398;2023-04-16T05:07:34;42.17;;;17.35;;
46651;SDS011;32377;52.182;5.398;2023-04-16T05:09:59;42.53;;;17.95;;
46651;SDS011;32377;52.182;5.398;2023-04-16T05:12:25;37.20;;;16.67;;
46651;SDS011;32377;52.182;5.398;2023-04-16T05:14:51;46.78;;;17.80;;
46651;SDS011;32377;52.182;5.398;2023-04-16T05:17:16;40.72;;;17.27;;
46651;SDS011;32377;52.182;5.398;2023-04-16T05:19:42;42.97;;;17.25;;
46651;SDS011;32377;52.182;5.398;2023-04-16T05:22:07;39.72;;;16.40;;
46651;SDS011;32377;52.182;5.398;2023-04-16T05:24:33;45.75;;;18.02;;
46651;SDS011;32377;52.182;5.398;2023-04-16T05:26:58;44.47;;;17.10;;
46651;SDS011;32377;52.182;5.398;2023-04-16T05:29:24;43.85;;;17.73;;
46651;SDS011;32377;52.182;5.398;2023-04-16T05:31:50;46.42;;;18.00;;
46651;SDS011;32377;52.182;5.398;2023-04-16T05:34:16;43.95;;;16.63;;
46651;SDS011;32377;52.182;5.398;2023-04-16T05:36:42;37.65;;;17.00;;
46651;SDS011;32377;52.182;5.398;2023-04-16T05:39:07;38.28;;;17.08;;
46651;SDS011;32377;52.182;5.398;2023-04-16T05:41:34;35.58;;;16.55;;
46651;SDS011;32377;52.182;5.398;2023-04-16T05:44:00;44.13;;;16.58;;
46651;SDS011;32377;52.182;5.398;2023-04-16T05:46:25;42.95;;;15.77;;
46651;SDS011;32377;52.182;5.398;2023-04-16T05:48:51;41.03;;;15.48;;
46651;SDS011;32377;52.182;5.398;2023-04-16T05:51:16;40.13;;;15.88;;
46651;SDS011;32377;52.182;5.398;2023-04-16T05:53:42;45.95;;;16.65;;
46651;SDS011;32377;52.182;5.398;2023-04-16T05:56:08;42.53;;;16.20;;
46651;SDS011;32377;52.182;5.398;2023-04-16T05:58:33;40.22;;;15.88;;
46651;SDS011;32377;52.182;5.398;2023-04-16T06:00:59;49.75;;;17.60;;
46651;SDS011;32377;52.182;5.398;2023-04-16T06:03:25;38.78;;;15.23;;
46651;SDS011;32377;52.182;5.398;2023-04-16T06:05:51;44.50;;;16.98;;
46651;SDS011;32377;52.182;5.398;2023-04-16T06:08:17;50.45;;;16.88;;
46651;SDS011;32377;52.182;5.398;2023-04-16T06:10:44;45.25;;;17.50;;
46651;SDS011;32377;52.182;5.398;2023-04-16T06:13:11;46.95;;;18.90;;
46651;SDS011;32377;52.182;5.398;2023-04-16T06:15:36;45.35;;;18.35;;
46651;SDS011;32377;52.182;5.398;2023-04-16T06:18:02;47.35;;;18.08;;
46651;SDS011;32377;52.182;5.398;2023-04-16T06:20:27;43.47;;;18.77;;
46651;SDS011;32377;52.182;5.398;2023-04-16T06:22:54;44.42;;;18.55;;
46651;SDS011;32377;52.182;5.398;2023-04-16T06:25:20;45.63;;;18.98;;
46651;SDS011;32377;52.182;5.398;2023-04-16T06:27:45;43.00;;;18.17;;
46651;SDS011;32377;52.182;5.398;2023-04-16T06:30:12;44.92;;;19.90;;
46651;SDS011;32377;52.182;5.398;2023-04-16T06:32:38;53.67;;;20.13;;
46651;SDS011;32377;52.182;5.398;2023-04-16T06:35:04;49.38;;;20.27;;
46651;SDS011;32377;52.182;5.398;2023-04-16T06:37:31;46.67;;;20.77;;
46651;SDS011;32377;52.182;5.398;2023-04-16T06:39:56;43.95;;;19.95;;
46651;SDS011;32377;52.182;5.398;2023-04-16T06:42:22;40.38;;;19.15;;
46651;SDS011;32377;52.182;5.398;2023-04-16T06:44:47;42.55;;;19.63;;
46651;SDS011;32377;52.182;5.398;2023-04-16T06:47:13;39.88;;;20.17;;
46651;SDS011;32377;52.182;5.398;2023-04-16T06:49:39;44.55;;;19.17;;
46651;SDS011;32377;52.182;5.398;2023-04-16T06:52:05;42.70;;;19.33;;
46651;SDS011;32377;52.182;5.398;2023-04-16T06:54:31;48.83;;;20.05;;
46651;SDS011;32377;52.182;5.398;2023-04-16T06:56:56;46.63;;;20.15;;
46651;SDS011;32377;52.182;5.398;2023-04-16T06:59:22;50.95;;;21.55;;
46651;SDS011;32377;52.182;5.398;2023-04-16T07:01:47;48.53;;;21.33;;
46651;SDS011;32377;52.182;5.398;2023-04-16T07:04:13;54.72;;;21.77;;
46651;SDS011;32377;52.182;5.398;2023-04-16T07:06:39;49.17;;;20.95;;
46651;SDS011;32377;52.182;5.398;2023-04-16T07:09:04;52.92;;;22.75;;
46651;SDS011;32377;52.182;5.398;2023-04-16T07:11:30;47.30;;;23.10;;
46651;SDS011;32377;52.182;5.398;2023-04-16T07:13:55;54.20;;;23.77;;
46651;SDS011;32377;52.182;5.398;2023-04-16T07:16:21;44.85;;;22.40;;
46651;SDS011;32377;52.182;5.398;2023-04-16T07:18:47;53.28;;;23.00;;
46651;SDS011;32377;52.182;5.398;2023-04-16T07:21:13;42.50;;;21.48;;
46651;SDS011;32377;52.182;5.398;2023-04-16T07:23:39;36.35;;;19.55;;
46651;SDS011;32377;52.182;5.398;2023-04-16T07:26:05;39.83;;;18.60;;
46651;SDS011;32377;52.182;5.398;2023-04-16T07:28:31;40.58;;;18.23;;
46651;SDS011;32377;52.182;5.398;2023-04-16T07:30:56;43.83;;;19.20;;
46651;SDS011;32377;52.182;5.398;2023-04-16T07:33:22;32.25;;;17.67;;
46651;SDS011;32377;52.182;5.398;2023-04-16T07:35:48;38.65;;;17.50;;
46651;SDS011;32377;52.182;5.398;2023-04-16T07:38:15;34.17;;;16.67;;
46651;SDS011;32377;52.182;5.398;2023-04-16T07:40:41;35.88;;;17.65;;
46651;SDS011;32377;52.182;5.398;2023-04-16T07:43:06;31.77;;;17.08;;
46651;SDS011;32377;52.182;5.398;2023-04-16T07:45:32;35.38;;;17.63;;
46651;SDS011;32377;52.182;5.398;2023-04-16T07:47:58;36.38;;;17.90;;
46651;SDS011;32377;52.182;5.398;2023-04-16T07:50:23;42.80;;;17.67;;
46651;SDS011;32377;52.182;5.398;2023-04-16T07:52:49;36.53;;;17.52;;
46651;SDS011;32377;52.182;5.398;2023-04-16T07:55:15;31.80;;;16.80;;
46651;SDS011;32377;52.182;5.398;2023-04-16T07:57:41;32.97;;;16.35;;
46651;SDS011;32377;52.182;5.398;2023-04-16T08:00:07;27.00;;;14.73;;
46651;SDS011;32377;52.182;5.398;2023-04-16T08:02:33;24.42;;;13.93;;
46651;SDS011;32377;52.182;5.398;2023-04-16T08:04:58;28.38;;;13.93;;
46651;SDS011;32377;52.182;5.398;2023-04-16T08:07:24;20.42;;;12.07;;
46651;SDS011;32377;52.182;5.398;2023-04-16T08:09:50;27.10;;;13.05;;
46651;SDS011;32377;52.182;5.398;2023-04-16T08:12:16;23.95;;;12.63;;
46651;SDS011;32377;52.182;5.398;2023-04-16T08:14:43;26.17;;;12.88;;
46651;SDS011;32377;52.182;5.398;2023-04-16T08:17:10;25.10;;;12.73;;
46651;SDS011;32377;52.182;5.398;2023-04-16T08:19:36;21.90;;;12.27;;
46651;SDS011;32377;52.182;5.398;2023-04-16T08:22:01;23.05;;;11.43;;
46651;SDS011;32377;52.182;5.398;2023-04-16T08:24:27;20.55;;;11.65;;
46651;SDS011;32377;52.182;5.398;2023-04-16T08:26:52;20.00;;;10.77;;
46651;SDS011;32377;52.182;5.398;2023-04-16T08:29:18;19.73;;;10.80;;
46651;SDS011;32377;52.182;5.398;2023-04-16T08:31:44;23.52;;;10.77;;
46651;SDS011;32377;52.182;5.398;2023-04-16T08:34:10;18.58;;;10.52;;
46651;SDS011;32377;52.182;5.398;2023-04-16T08:36:36;21.17;;;10.13;;
46651;SDS011;32377;52.182;5.398;2023-04-16T08:39:02;20.27;;;9.50;;
46651;SDS011;32377;52.182;5.398;2023-04-16T08:41:28;17.83;;;10.70;;
46651;SDS011;32377;52.182;5.398;2023-04-16T08:43:57;17.27;;;9.35;;
46651;SDS011;32377;52.182;5.398;2023-04-16T08:46:24;17.58;;;9.65;;
46651;SDS011;32377;52.182;5.398;2023-04-16T08:48:53;17.90;;;9.43;;
46651;SDS011;32377;52.182;5.398;2023-04-16T08:51:21;16.33;;;9.95;;
46651;SDS011;32377;52.182;5.398;2023-04-16T08:53:51;17.67;;;9.27;;
46651;SDS011;32377;52.182;5.398;2023-04-16T08:56:19;14.30;;;8.85;;
46651;SDS011;32377;52.182;5.398;2023-04-16T08:58:47;13.77;;;8.82;;
46651;SDS011;32377;52.182;5.398;2023-04-16T09:01:15;15.27;;;8.25;;
46651;SDS011;32377;52.182;5.398;2023-04-16T09:03:43;15.23;;;9.18;;
46651;SDS011;32377;52.182;5.398;2023-04-16T09:06:12;17.40;;;8.70;;
46651;SDS011;32377;52.182;5.398;2023-04-16T09:08:39;15.25;;;8.43;;
46651;SDS011;32377;52.182;5.398;2023-04-16T09:11:05;12.98;;;9.13;;
46651;SDS011;32377;52.182;5.398;2023-04-16T09:13:31;14.73;;;8.48;;
46651;SDS011;32377;52.182;5.398;2023-04-16T09:15:56;19.02;;;8.32;;
46651;SDS011;32377;52.182;5.398;2023-04-16T09:18:22;13.63;;;8.38;;
46651;SDS011;32377;52.182;5.398;2023-04-16T09:20:48;18.23;;;9.20;;
46651;SDS011;32377;52.182;5.398;2023-04-16T09:23:15;18.23;;;9.27;;
46651;SDS011;32377;52.182;5.398;2023-04-16T09:25:41;15.93;;;9.38;;
46651;SDS011;32377;52.182;5.398;2023-04-16T09:28:08;16.50;;;9.20;;
46651;SDS011;32377;52.182;5.398;2023-04-16T09:30:34;16.48;;;9.38;;
46651;SDS011;32377;52.182;5.398;2023-04-16T09:33:17;15.23;;;9.48;;
46651;SDS011;32377;52.182;5.398;2023-04-16T09:35:48;14.25;;;9.45;;
46651;SDS011;32377;52.182;5.398;2023-04-16T09:38:15;19.15;;;10.27;;
46651;SDS011;32377;52.182;5.398;2023-04-16T09:40:40;18.42;;;10.90;;
46651;SDS011;32377;52.182;5.398;2023-04-16T09:43:13;20.90;;;11.15;;
46651;SDS011;32377;52.182;5.398;2023-04-16T09:45:47;19.20;;;10.40;;
46651;SDS011;32377;52.182;5.398;2023-04-16T09:48:14;20.23;;;10.05;;
46651;SDS011;32377;52.182;5.398;2023-04-16T09:50:40;17.35;;;9.95;;
46651;SDS011;32377;52.182;5.398;2023-04-16T09:53:20;17.85;;;10.25;;
46651;SDS011;32377;52.182;5.398;2023-04-16T09:59:20;24.08;;;11.45;;
46651;SDS011;32377;52.182;5.398;2023-04-16T10:01:46;23.20;;;12.60;;
46651;SDS011;32377;52.182;5.398;2023-04-16T10:04:17;25.63;;;13.85;;
46651;SDS011;32377;52.182;5.398;2023-04-16T10:06:44;35.00;;;15.25;;
46651;SDS011;32377;52.182;5.398;2023-04-16T10:09:36;26.88;;;14.25;;
46651;SDS011;32377;52.182;5.398;2023-04-16T10:12:02;35.65;;;15.40;;
46651;SDS011;32377;52.182;5.398;2023-04-16T10:14:28;27.23;;;15.23;;
46651;SDS011;32377;52.182;5.398;2023-04-16T10:16:54;29.25;;;14.63;;
46651;SDS011;32377;52.182;5.398;2023-04-16T10:19:20;29.60;;;14.70;;
46651;SDS011;32377;52.182;5.398;2023-04-16T10:21:46;31.73;;;15.13;;
46651;SDS011;32377;52.182;5.398;2023-04-16T10:24:12;43.40;;;15.75;;
46651;SDS011;32377;52.182;5.398;2023-04-16T10:26:40;30.52;;;15.60;;
46651;SDS011;32377;52.182;5.398;2023-04-16T10:29:06;32.88;;;15.55;;
46651;SDS011;32377;52.182;5.398;2023-04-16T10:31:33;31.95;;;14.93;;
46651;SDS011;32377;52.182;5.398;2023-04-16T10:34:00;28.00;;;15.48;;
46651;SDS011;32377;52.182;5.398;2023-04-16T10:36:27;34.10;;;13.98;;
46651;SDS011;32377;52.182;5.398;2023-04-16T10:38:56;35.05;;;14.73;;
46651;SDS011;32377;52.182;5.398;2023-04-16T10:41:23;31.50;;;15.55;;
46651;SDS011;32377;52.182;5.398;2023-04-16T10:43:50;35.15;;;14.60;;
46651;SDS011;32377;52.182;5.398;2023-04-16T10:46:20;33.85;;;15.32;;
46651;SDS011;32377;52.182;5.398;2023-04-16T10:48:47;34.42;;;15.80;;
46651;SDS011;32377;52.182;5.398;2023-04-16T10:53:54;29.48;;;14.50;;
46651;SDS011;32377;52.182;5.398;2023-04-16T10:56:24;31.42;;;13.60;;
46651;SDS011;32377;52.182;5.398;2023-04-16T10:58:52;32.25;;;14.55;;
46651;SDS011;32377;52.182;5.398;2023-04-16T11:01:31;28.83;;;14.10;;
46651;SDS011;32377;52.182;5.398;2023-04-16T11:03:59;24.23;;;12.98;;
46651;SDS011;32377;52.182;5.398;2023-04-16T11:06:26;24.83;;;14.15;;
46651;SDS011;32377;52.182;5.398;2023-04-16T11:08:53;27.50;;;13.55;;
46651;SDS011;32377;52.182;5.398;2023-04-16T11:11:19;26.38;;;13.65;;
46651;SDS011;32377;52.182;5.398;2023-04-16T11:13:46;33.72;;;14.90;;
46651;SDS011;32377;52.182;5.398;2023-04-16T11:16:12;28.50;;;15.93;;
46651;SDS011;32377;52.182;5.398;2023-04-16T11:18:39;30.75;;;15.38;;
46651;SDS011;32377;52.182;5.398;2023-04-16T11:21:08;30.50;;;15.70;;
46651;SDS011;32377;52.182;5.398;2023-04-16T11:23:49;28.27;;;14.88;;
46651;SDS011;32377;52.182;5.398;2023-04-16T11:26:20;33.22;;;15.13;;
46651;SDS011;32377;52.182;5.398;2023-04-16T11:28:53;33.50;;;16.70;;
46651;SDS011;32377;52.182;5.398;2023-04-16T11:31:24;29.17;;;14.85;;
46651;SDS011;32377;52.182;5.398;2023-04-16T11:33:51;27.17;;;14.55;;
46651;SDS011;32377;52.182;5.398;2023-04-16T11:36:17;32.15;;;15.55;;
46651;SDS011;32377;52.182;5.398;2023-04-16T11:38:43;28.02;;;15.52;;
46651;SDS011;32377;52.182;5.398;2023-04-16T11:41:10;30.98;;;14.85;;
46651;SDS011;32377;52.182;5.398;2023-04-16T11:43:42;32.58;;;14.95;;
46651;SDS011;32377;52.182;5.398;2023-04-16T11:46:08;29.95;;;16.27;;
46651;SDS011;32377;52.182;5.398;2023-04-16T11:48:46;36.88;;;17.42;;
46651;SDS011;32377;52.182;5.398;2023-04-16T11:51:16;38.72;;;18.25;;
46651;SDS011;32377;52.182;5.398;2023-04-16T11:53:53;39.30;;;21.63;;
46651;SDS011;32377;52.182;5.398;2023-04-16T11:56:36;43.83;;;18.63;;
46651;SDS011;32377;52.182;5.398;2023-04-16T12:01:35;25.85;;;14.85;;
46651;SDS011;32377;52.182;5.398;2023-04-16T12:04:02;23.48;;;12.95;;
46651;SDS011;32377;52.182;5.398;2023-04-16T12:06:28;32.50;;;13.93;;
46651;SDS011;32377;52.182;5.398;2023-04-16T12:08:53;32.72;;;14.85;;
46651;SDS011;32377;52.182;5.398;2023-04-16T12:11:19;29.98;;;13.88;;
46651;SDS011;32377;52.182;5.398;2023-04-16T12:16:30;27.48;;;14.20;;
46651;SDS011;32377;52.182;5.398;2023-04-16T12:19:00;29.77;;;13.50;;
46651;SDS011;32377;52.182;5.398;2023-04-16T12:21:47;27.20;;;12.30;;
46651;SDS011;32377;52.182;5.398;2023-04-16T12:24:14;26.75;;;12.25;;
46651;SDS011;32377;52.182;5.398;2023-04-16T12:26:47;30.52;;;12.95;;
46651;SDS011;32377;52.182;5.398;2023-04-16T12:29:20;26.35;;;11.93;;
46651;SDS011;32377;52.182;5.398;2023-04-16T12:31:48;31.05;;;12.50;;
46651;SDS011;32377;52.182;5.398;2023-04-16T12:34:15;26.85;;;12.88;;
46651;SDS011;32377;52.182;5.398;2023-04-16T12:36:41;23.90;;;13.35;;
46651;SDS011;32377;52.182;5.398;2023-04-16T12:39:08;26.08;;;13.57;;
46651;SDS011;32377;52.182;5.398;2023-04-16T12:41:38;28.20;;;13.93;;
46651;SDS011;32377;52.182;5.398;2023-04-16T12:44:06;29.50;;;12.50;;
46651;SDS011;32377;52.182;5.398;2023-04-16T12:46:39;31.25;;;13.57;;
46651;SDS011;32377;52.182;5.398;2023-04-16T12:49:06;26.88;;;13.68;;
46651;SDS011;32377;52.182;5.398;2023-04-16T12:51:32;32.03;;;13.95;;
46651;SDS011;32377;52.182;5.398;2023-04-16T12:53:59;27.83;;;13.98;;
46651;SDS011;32377;52.182;5.398;2023-04-16T12:56:25;29.55;;;15.32;;
46651;SDS011;32377;52.182;5.398;2023-04-16T12:58:51;33.30;;;15.02;;
46651;SDS011;32377;52.182;5.398;2023-04-16T13:01:18;34.38;;;16.65;;
46651;SDS011;32377;52.182;5.398;2023-04-16T13:03:44;37.03;;;15.82;;
46651;SDS011;32377;52.182;5.398;2023-04-16T13:06:11;35.72;;;16.08;;
46651;SDS011;32377;52.182;5.398;2023-04-16T13:08:37;42.70;;;16.48;;
46651;SDS011;32377;52.182;5.398;2023-04-16T13:11:03;40.63;;;15.50;;
46651;SDS011;32377;52.182;5.398;2023-04-16T13:13:29;41.13;;;16.33;;
46651;SDS011;32377;52.182;5.398;2023-04-16T13:15:55;42.28;;;17.10;;
46651;SDS011;32377;52.182;5.398;2023-04-16T13:18:20;38.25;;;17.33;;
46651;SDS011;32377;52.182;5.398;2023-04-16T13:20:46;37.28;;;16.20;;
46651;SDS011;32377;52.182;5.398;2023-04-16T13:23:12;39.75;;;15.57;;
46651;SDS011;32377;52.182;5.398;2023-04-16T13:25:38;31.80;;;14.68;;
46651;SDS011;32377;52.182;5.398;2023-04-16T13:28:03;32.20;;;14.82;;
46651;SDS011;32377;52.182;5.398;2023-04-16T13:30:29;33.53;;;16.27;;
46651;SDS011;32377;52.182;5.398;2023-04-16T13:32:57;37.15;;;15.45;;
46651;SDS011;32377;52.182;5.398;2023-04-16T13:35:23;37.28;;;15.40;;
46651;SDS011;32377;52.182;5.398;2023-04-16T13:37:48;31.30;;;13.98;;
46651;SDS011;32377;52.182;5.398;2023-04-16T13:40:14;35.20;;;14.77;;
46651;SDS011;32377;52.182;5.398;2023-04-16T13:42:40;37.25;;;15.02;;
46651;SDS011;32377;52.182;5.398;2023-04-16T13:45:06;30.63;;;12.73;;
46651;SDS011;32377;52.182;5.398;2023-04-16T13:47:33;30.50;;;13.50;;
46651;SDS011;32377;52.182;5.398;2023-04-16T13:49:59;25.77;;;13.27;;
46651;SDS011;32377;52.182;5.398;2023-04-16T13:52:25;30.23;;;13.32;;
46651;SDS011;32377;52.182;5.398;2023-04-16T13:54:50;28.90;;;12.80;;
46651;SDS011;32377;52.182;5.398;2023-04-16T13:57:16;27.25;;;14.15;;
46651;SDS011;32377;52.182;5.398;2023-04-16T13:59:42;24.42;;;12.70;;
46651;SDS011;32377;52.182;5.398;2023-04-16T14:02:08;24.95;;;12.48;;
46651;SDS011;32377;52.182;5.398;2023-04-16T14:04:34;27.95;;;13.27;;
46651;SDS011;32377;52.182;5.398;2023-04-16T14:07:00;31.23;;;12.40;;
46651;SDS011;32377;52.182;5.398;2023-04-16T14:09:25;28.20;;;13.82;;
46651;SDS011;32377;52.182;5.398;2023-04-16T14:11:51;30.40;;;13.57;;
46651;SDS011;32377;52.182;5.398;2023-04-16T14:14:17;30.80;;;12.68;;
46651;SDS011;32377;52.182;5.398;2023-04-16T14:16:42;33.15;;;13.18;;
46651;SDS011;32377;52.182;5.398;2023-04-16T14:19:08;31.52;;;12.90;;
46651;SDS011;32377;52.182;5.398;2023-04-16T14:21:34;23.20;;;12.07;;
46651;SDS011;32377;52.182;5.398;2023-04-16T14:24:00;33.33;;;13.32;;
46651;SDS011;32377;52.182;5.398;2023-04-16T14:26:26;31.00;;;14.00;;
46651;SDS011;32377;52.182;5.398;2023-04-16T14:28:52;29.95;;;13.15;;
46651;SDS011;32377;52.182;5.398;2023-04-16T14:31:17;33.53;;;12.68;;
46651;SDS011;32377;52.182;5.398;2023-04-16T14:33:43;29.52;;;13.00;;
46651;SDS011;32377;52.182;5.398;2023-04-16T14:36:09;29.00;;;13.07;;